Time;durP1;ratioP1;P1;durP2;ratioP2;P2;SDS_P1;SDS_P2;PMS_P1;PMS_P2;Temp;Humidity;BMP_temperature;BMP_pressure;BME280_temperature;BME280_humidity;BME280_pressure;Samples;Min_cycle;Max_cycle;Signal;HPM_P1;HPM_P2
2023/03/05 00:01:12;;;;;;;12.85;6.12;;;;;;;3.02;66.48;99738.28;4384923;32;33224;-79
2023/03/05 00:03:40;;;;;;;14.15;6.65;;;;;;;2.94;66.58;99741.16;4450252;32;34144;-79
2023/03/05 00:06:08;;;;;;;17.85;7.87;;;;;;;2.85;66.92;99740.47;4402281;32;32821;-79
2023/03/05 00:08:36;;;;;;;16.50;7.75;;;;;;;2.99;66.58;99743.16;4404602;32;34523;-79
2023/03/05 00:11:06;;;;;;;16.23;7.47;;;;;;;3.08;66.23;99743.84;4427372;32;34338;-81
2023/03/05 00:13:35;;;;;;;15.30;8.57;;;;;;;3.22;65.69;99738.06;4446430;32;32925;-79
2023/03/05 00:16:07;;;;;;;15.98;8.02;;;;;;;3.34;65.02;99738.97;4402822;32;33687;-79
2023/03/05 00:18:36;;;;;;;17.35;7.93;;;;;;;3.44;64.53;99744.72;4442929;32;34436;-80
2023/03/05 00:21:12;;;;;;;15.48;7.68;;;;;;;3.71;63.45;99743.25;4398997;32;33990;-79
2023/03/05 00:23:40;;;;;;;15.38;7.60;;;;;;;3.57;63.71;99749.94;4449977;32;33340;-80
2023/03/05 00:26:08;;;;;;;16.48;7.95;;;;;;;3.49;63.95;99741.72;4394394;32;34633;-79
2023/03/05 00:28:36;;;;;;;13.75;7.62;;;;;;;3.29;64.68;99745.41;4392700;32;34374;-80
2023/03/05 00:31:04;;;;;;;16.45;6.25;;;;;;;3.42;64.04;99746.28;4429861;32;34179;-79
2023/03/05 00:33:33;;;;;;;18.80;8.73;;;;;;;3.15;64.86;99746.09;4411845;32;33838;-80
2023/03/05 00:36:05;;;;;;;15.85;7.37;;;;;;;3.38;64.26;99744.28;4441247;32;34469;-79
2023/03/05 00:38:33;;;;;;;14.10;6.55;;;;;;;3.49;63.58;99739.16;4402667;32;33552;-80
2023/03/05 00:41:01;;;;;;;18.77;8.20;;;;;;;3.43;63.85;99737.84;4428460;32;34035;-79
2023/03/05 00:43:29;;;;;;;16.40;6.90;;;;;;;3.47;63.63;99735.59;4443408;32;33318;-79
2023/03/05 00:45:56;;;;;;;12.75;5.82;;;;;;;3.33;63.90;99732.03;4402405;32;33862;-79
2023/03/05 00:48:24;;;;;;;14.15;7.60;;;;;;;3.10;64.65;99726.94;4408272;32;33517;-80
2023/03/05 00:50:52;;;;;;;14.63;7.55;;;;;;;2.90;65.59;99735.72;4433597;32;33142;-79
2023/03/05 00:53:21;;;;;;;11.32;6.43;;;;;;;3.13;64.77;99722.06;4438060;32;33459;-79
2023/03/05 00:55:50;;;;;;;11.95;6.07;;;;;;;3.04;64.92;99726.50;4402178;32;33962;-80
2023/03/05 00:58:19;;;;;;;11.30;5.47;;;;;;;3.01;64.82;99722.00;4409341;32;31992;-80
2023/03/05 01:00:50;;;;;;;16.23;7.20;;;;;;;2.99;65.14;99727.81;4435781;32;33318;-79
2023/03/05 01:03:17;;;;;;;17.20;6.85;;;;;;;3.08;65.04;99725.94;4437050;32;35668;-79
2023/03/05 01:05:45;;;;;;;13.62;7.20;;;;;;;2.86;65.95;99726.00;4404528;32;33922;-79
2023/03/05 01:08:14;;;;;;;16.85;7.37;;;;;;;3.17;64.92;99729.16;4407773;32;33573;-80
2023/03/05 01:10:41;;;;;;;15.82;6.87;;;;;;;3.52;63.59;99730.81;4439308;32;32930;-79
2023/03/05 01:13:10;;;;;;;14.65;7.18;;;;;;;3.26;64.28;99722.12;4432331;32;34287;-79
2023/03/05 01:15:38;;;;;;;11.57;6.03;;;;;;;3.41;63.82;99729.16;4407758;32;33413;-79
2023/03/05 01:18:05;;;;;;;14.20;6.82;;;;;;;3.19;64.60;99730.16;4385088;32;33152;-78
2023/03/05 01:20:33;;;;;;;15.23;7.03;;;;;;;3.57;63.56;99736.25;4443996;32;33402;-78
2023/03/05 01:23:00;;;;;;;14.30;7.47;;;;;;;3.89;62.44;99726.59;4388298;32;34028;-80
2023/03/05 01:25:28;;;;;;;15.48;7.80;;;;;;;3.89;62.00;99725.72;4442366;32;33814;-78
2023/03/05 01:27:55;;;;;;;14.40;7.53;;;;;;;3.22;64.27;99732.94;4402028;32;33959;-79
2023/03/05 01:30:23;;;;;;;16.00;7.22;;;;;;;3.58;63.75;99733.81;4448807;32;34320;-79
2023/03/05 01:32:51;;;;;;;13.88;7.22;;;;;;;3.68;63.15;99741.34;4422123;32;33867;-80
2023/03/05 01:35:21;;;;;;;14.18;7.60;;;;;;;3.28;64.20;99733.41;4427010;32;34411;-78
2023/03/05 01:37:50;;;;;;;17.30;7.40;;;;;;;3.79;62.75;99733.56;4415593;32;33392;-80
2023/03/05 01:40:20;;;;;;;12.25;6.53;;;;;;;3.57;63.54;99741.37;4452004;32;33524;-79
2023/03/05 01:42:58;;;;;;;15.38;7.70;;;;;;;3.67;62.95;99739.59;4414612;32;33913;-79
2023/03/05 01:45:31;;;;;;;14.98;7.55;;;;;;;3.68;63.19;99731.09;4443704;32;33815;-78
2023/03/05 01:47:59;;;;;;;14.60;7.40;;;;;;;3.44;64.42;99726.78;4453871;32;33652;-79
2023/03/05 01:50:28;;;;;;;18.08;7.53;;;;;;;3.30;65.09;99725.81;4409142;32;34779;-79
2023/03/05 01:53:01;;;;;;;15.93;7.65;;;;;;;3.17;65.05;99729.16;4430752;32;34166;-78
2023/03/05 01:55:31;;;;;;;15.52;8.10;;;;;;;3.83;63.54;99730.41;4429345;32;33385;-80
2023/03/05 01:58:05;;;;;;;19.92;8.07;;;;;;;3.18;65.10;99741.16;4387829;32;33219;-79
2023/03/05 02:00:35;;;;;;;17.37;8.13;;;;;;;3.32;64.51;99740.53;4429492;32;33457;-79
2023/03/05 02:03:05;;;;;;;15.15;7.75;;;;;;;3.32;64.86;99732.84;4395658;32;32758;-78
2023/03/05 02:05:35;;;;;;;14.80;7.90;;;;;;;3.54;64.19;99734.37;4394879;32;34306;-78
2023/03/05 02:08:06;;;;;;;;;;;;;;;3.87;61.70;99730.72;4453910;32;33504;-80
2023/03/05 02:10:35;;;;;;;;;;;;;;;4.05;61.68;99723.41;4394724;32;34429;-79
2023/03/05 02:13:23;;;;;;;;;;;;;;;3.65;62.61;99730.91;4404781;32;33980;-78
2023/03/05 02:15:51;;;;;;;;;;;;;;;3.96;62.54;99730.50;4453887;32;32890;-78
2023/03/05 02:18:18;;;;;;;;;;;;;;;2.66;66.62;99738.22;4404292;32;33840;-80
2023/03/05 02:20:55;;;;;;;;;;;;;;;2.93;66.38;99733.38;4413739;32;33795;-78
2023/03/05 02:23:24;;;;;;;;;;;;;;;3.74;64.03;99736.66;4415625;32;33932;-80
2023/03/05 02:25:51;;;;;;;;;;;;;;;3.18;64.98;99733.50;4439695;32;32615;-78
2023/03/05 02:28:22;;;;;;;;;;;;;;;3.69;63.47;99734.53;4401286;32;33711;-79
2023/03/05 02:30:50;;;;;;;;;;;;;;;3.74;63.17;99726.41;4413006;32;33034;-79
2023/03/05 02:33:18;;;;;;;;;;;;;;;2.92;66.22;99722.25;4411132;32;34835;-78
2023/03/05 02:35:45;;;;;;;;;;;;;;;3.56;63.85;99724.25;4453315;32;33962;-79
2023/03/05 02:38:13;;;;;;;;;;;;;;;3.08;65.86;99723.38;4455594;32;34413;-79
2023/03/05 02:40:40;;;;;;;;;;;;;;;3.53;64.00;99719.78;4399515;32;33447;-79
2023/03/05 02:43:08;;;;;;;;;;;;;;;2.94;66.05;99719.81;4440065;32;34136;-79
2023/03/05 02:45:36;;;;;;;;;;;;;;;2.51;67.83;99722.62;4410929;32;33988;-79
2023/03/05 02:48:03;;;;;;;;;;;;;;;2.26;68.99;99730.09;4429255;32;33958;-78
2023/03/05 02:50:31;;;;;;;12.93;6.60;;;;;;;2.52;68.44;99724.41;4445889;32;33884;-79
2023/03/05 02:52:58;;;;;;;17.90;7.65;;;;;;;3.33;66.12;99731.16;4384047;32;33892;-78
2023/03/05 02:55:26;;;;;;;14.82;7.72;;;;;;;2.82;67.10;99724.00;4442502;32;33920;-80
2023/03/05 02:57:54;;;;;;;19.20;10.25;;;;;;;2.81;67.37;99722.25;4449084;32;33401;-80
2023/03/05 03:00:21;;;;;;;19.57;11.07;;;;;;;3.27;65.39;99726.47;4449462;32;33866;-80
2023/03/05 03:02:49;;;;;;;17.08;10.38;;;;;;;2.87;66.68;99715.88;4421589;32;34140;-79
2023/03/05 03:05:17;;;;;;;18.65;10.90;;;;;;;2.63;68.03;99711.53;4427461;32;33523;-80
2023/03/05 03:07:45;;;;;;;18.25;11.07;;;;;;;2.66;68.17;99711.75;4451942;32;34031;-78
2023/03/05 03:10:12;;;;;;;19.17;11.38;;;;;;;2.38;68.61;99702.03;4399259;32;33118;-78
2023/03/05 03:12:41;;;;;;;19.15;10.55;;;;;;;2.26;69.10;99708.75;4445750;32;34521;-80
2023/03/05 03:15:11;;;;;;;15.73;9.07;;;;;;;2.62;67.78;99709.75;4413690;32;34201;-80
2023/03/05 03:17:39;;;;;;;16.80;8.48;;;;;;;2.49;68.29;99711.41;4375716;32;34068;-80
2023/03/05 03:20:10;;;;;;;15.50;8.00;;;;;;;2.21;69.10;99712.63;4416785;32;34059;-78
2023/03/05 03:22:37;;;;;;;19.70;7.95;;;;;;;1.94;70.48;99709.75;4414706;32;33548;-79
2023/03/05 03:25:06;;;;;;;15.30;7.32;;;;;;;2.06;70.24;99709.78;4391801;32;34025;-79
2023/03/05 03:27:34;;;;;;;15.00;8.13;;;;;;;1.85;70.96;99716.69;4394200;32;33792;-81
2023/03/05 03:30:03;;;;;;;17.15;8.45;;;;;;;1.75;71.48;99713.41;4403031;32;33409;-80
2023/03/05 03:32:32;;;;;;;14.57;7.50;;;;;;;1.88;71.39;99704.16;4400634;32;33598;-80
2023/03/05 03:35:00;;;;;;;14.63;8.52;;;;;;;2.02;70.76;99703.56;4402653;32;35340;-79
2023/03/05 03:37:29;;;;;;;17.17;7.10;;;;;;;1.89;71.15;99696.63;4391327;32;33644;-79
2023/03/05 03:39:56;;;;;;;16.80;8.32;;;;;;;1.75;71.59;99703.19;4393839;32;33200;-79
2023/03/05 03:42:24;;;;;;;17.50;8.35;;;;;;;1.76;71.33;99694.78;4392652;32;33184;-80
2023/03/05 03:44:51;;;;;;;17.77;7.75;;;;;;;1.95;71.29;99697.09;4390048;32;34446;-80
2023/03/05 03:47:19;;;;;;;17.62;8.00;;;;;;;1.81;71.24;99696.78;4384550;32;33212;-79
2023/03/05 03:49:46;;;;;;;15.10;8.30;;;;;;;1.98;70.92;99704.09;4400752;32;33544;-79
2023/03/05 03:52:14;;;;;;;19.80;7.95;;;;;;;1.86;71.18;99708.28;4401090;32;32329;-80
2023/03/05 03:54:41;;;;;;;23.42;8.38;;;;;;;1.72;71.91;99713.19;4390522;32;33777;-79
2023/03/05 03:57:08;;;;;;;18.98;8.82;;;;;;;1.71;71.75;99703.75;4393007;32;34886;-80
2023/03/05 03:59:36;;;;;;;20.65;8.13;;;;;;;1.82;71.31;99708.81;4394553;32;33303;-79
2023/03/05 04:02:04;;;;;;;17.40;7.80;;;;;;;1.81;71.28;99707.91;4405651;32;33393;-78
2023/03/05 04:04:31;;;;;;;17.30;7.50;;;;;;;1.81;71.53;99701.91;4403116;32;34013;-80
2023/03/05 04:06:59;;;;;;;20.37;8.27;;;;;;;1.83;71.61;99700.38;4404060;32;33269;-80
2023/03/05 04:09:27;;;;;;;17.67;7.78;;;;;;;1.94;71.00;99704.63;4389243;32;33964;-79
2023/03/05 04:11:54;;;;;;;18.62;7.85;;;;;;;1.59;72.42;99705.34;4394478;32;33544;-78
2023/03/05 04:14:22;;;;;;;18.00;8.63;;;;;;;1.62;72.70;99705.56;4403287;32;34565;-78
2023/03/05 04:16:50;;;;;;;14.38;7.57;;;;;;;1.84;71.72;99695.38;4397491;32;34263;-78
2023/03/05 04:19:17;;;;;;;16.10;7.65;;;;;;;2.02;70.93;99697.56;4399304;32;33953;-79
2023/03/05 04:21:45;;;;;;;15.90;8.13;;;;;;;1.91;71.30;99699.28;4402262;32;34174;-80
2023/03/05 04:24:12;;;;;;;16.87;7.65;;;;;;;1.79;71.72;99693.25;4391883;32;32562;-80
2023/03/05 04:26:40;;;;;;;17.95;7.12;;;;;;;2.13;70.84;99695.06;4391747;32;33222;-78
2023/03/05 04:29:07;;;;;;;15.07;7.43;;;;;;;2.16;70.44;99691.81;4394014;32;34173;-80
2023/03/05 04:31:35;;;;;;;14.25;7.60;;;;;;;2.10;70.46;99689.69;4396387;32;33845;-78
2023/03/05 04:34:02;;;;;;;17.42;7.22;;;;;;;1.71;71.71;99690.09;4391112;32;33826;-78
2023/03/05 04:36:30;;;;;;;15.77;8.18;;;;;;;1.61;72.47;99698.69;4405910;32;33833;-79
2023/03/05 04:38:57;;;;;;;15.63;7.47;;;;;;;1.54;72.94;99691.31;4388468;32;33455;-80
2023/03/05 04:41:26;;;;;;;16.70;7.10;;;;;;;1.49;73.30;99692.62;4390176;32;33737;-79
2023/03/05 04:43:53;;;;;;;15.23;7.82;;;;;;;1.45;73.67;99691.50;4392668;32;34123;-78
2023/03/05 04:46:20;;;;;;;19.75;8.27;;;;;;;1.35;74.27;99684.78;4398461;32;34046;-78
2023/03/05 04:48:48;;;;;;;16.25;8.00;;;;;;;1.49;74.20;99690.09;4398836;32;34379;-80
2023/03/05 04:51:16;;;;;;;15.15;7.40;;;;;;;1.61;73.87;99683.38;4400737;32;33795;-80
2023/03/05 04:53:43;;;;;;;16.70;8.35;;;;;;;1.51;74.36;99691.97;4388513;32;33960;-79
2023/03/05 04:56:11;;;;;;;20.30;7.70;;;;;;;1.53;74.13;99684.44;4390551;32;33234;-79
2023/03/05 04:58:38;;;;;;;16.52;8.85;;;;;;;1.51;74.50;99680.87;4392772;32;34269;-79
2023/03/05 05:01:06;;;;;;;19.50;8.65;;;;;;;1.64;73.93;99677.59;4380970;32;34487;-78
2023/03/05 05:03:34;;;;;;;17.77;8.13;;;;;;;1.68;73.94;99689.84;4397394;32;35221;-79
2023/03/05 05:06:02;;;;;;;17.33;8.07;;;;;;;1.77;73.46;99676.13;4406273;32;33346;-79
2023/03/05 05:08:31;;;;;;;19.23;8.18;;;;;;;1.91;73.10;99678.84;4407822;32;33983;-78
2023/03/05 05:11:01;;;;;;;16.58;8.00;;;;;;;1.89;73.28;99680.41;4388673;32;34645;-80
2023/03/05 05:13:29;;;;;;;16.10;7.60;;;;;;;2.30;72.54;99675.00;4387746;32;33297;-79
2023/03/05 05:15:56;;;;;;;16.17;7.65;;;;;;;2.08;73.67;99678.47;4383534;32;33296;-78
2023/03/05 05:18:25;;;;;;;17.05;7.53;;;;;;;2.09;73.58;99685.38;4373261;32;34387;-79
2023/03/05 05:20:53;;;;;;;16.20;8.27;;;;;;;2.02;73.77;99687.34;4399617;32;34025;-81
2023/03/05 05:23:20;;;;;;;18.75;8.05;;;;;;;2.11;73.22;99688.94;4401925;32;33968;-80
2023/03/05 05:25:58;;;;;;;16.50;7.60;;;;;;;2.12;73.66;99685.59;4393988;32;33885;-79
2023/03/05 05:28:26;;;;;;;13.77;7.07;;;;;;;2.06;73.70;99690.25;4375715;32;33559;-79
2023/03/05 05:30:54;;;;;;;13.77;6.87;;;;;;;1.99;74.21;99688.00;4388509;32;33813;-79
2023/03/05 05:33:22;;;;;;;14.73;7.40;;;;;;;2.06;73.76;99705.56;4394072;32;33334;-80
2023/03/05 05:35:50;;;;;;;16.20;7.78;;;;;;;2.02;74.00;99701.00;4398299;32;34010;-79
2023/03/05 05:38:18;;;;;;;14.60;7.95;;;;;;;1.98;74.40;99691.31;4400042;32;32939;-80
2023/03/05 05:40:45;;;;;;;17.42;7.78;;;;;;;2.06;74.46;99690.25;4374605;32;32564;-78
2023/03/05 05:43:13;;;;;;;17.62;8.27;;;;;;;2.10;74.22;99686.25;4389556;32;33708;-78
2023/03/05 05:45:41;;;;;;;19.02;8.80;;;;;;;2.20;73.94;99682.72;4377787;32;34029;-79
2023/03/05 05:48:08;;;;;;;16.00;8.93;;;;;;;2.29;73.49;99693.66;4402885;32;33506;-80
2023/03/05 05:50:37;;;;;;;15.32;7.55;;;;;;;2.22;73.58;99696.50;4384605;32;34191;-80
2023/03/05 05:53:05;;;;;;;16.10;7.85;;;;;;;2.51;72.31;99711.50;4400558;32;34445;-78
2023/03/05 05:55:32;;;;;;;16.83;7.97;;;;;;;2.48;72.51;99712.16;4388745;32;32417;-79
2023/03/05 05:58:00;;;;;;;18.33;8.68;;;;;;;2.77;71.61;99721.13;4390782;32;33423;-81
2023/03/05 06:00:27;;;;;;;18.62;8.00;;;;;;;3.15;69.55;99720.50;4392498;32;34001;-79
2023/03/05 06:02:55;;;;;;;16.25;8.48;;;;;;;3.54;68.61;99716.44;4391559;32;33915;-79
2023/03/05 06:05:23;;;;;;;15.70;7.37;;;;;;;3.24;69.26;99726.25;4396499;32;33774;-79
2023/03/05 06:07:50;;;;;;;18.48;9.23;;;;;;;3.44;68.76;99719.09;4399475;32;33301;-79
2023/03/05 06:10:18;;;;;;;18.35;8.40;;;;;;;3.76;67.37;99717.94;4403520;32;33810;-80
2023/03/05 06:12:45;;;;;;;19.08;8.40;;;;;;;3.37;68.70;99727.16;4387854;32;33966;-79
2023/03/05 06:15:13;;;;;;;17.60;8.73;;;;;;;3.33;69.11;99720.91;4390290;32;33489;-78
2023/03/05 06:17:40;;;;;;;17.00;7.95;;;;;;;2.81;70.91;99723.12;4379330;32;33322;-80
2023/03/05 06:20:08;;;;;;;20.55;8.52;;;;;;;3.00;70.62;99719.37;4384016;32;33781;-80
2023/03/05 06:22:38;;;;;;;18.55;8.43;;;;;;;3.14;70.11;99723.81;4396301;32;33424;-80
2023/03/05 06:25:07;;;;;;;16.10;8.65;;;;;;;3.05;70.57;99728.25;4400415;32;33960;-79
2023/03/05 06:27:35;;;;;;;18.85;8.45;;;;;;;3.06;70.09;99724.94;4387207;32;32958;-79
2023/03/05 06:30:04;;;;;;;15.85;8.05;;;;;;;3.14;69.96;99723.81;4379375;32;34146;-80
2023/03/05 06:32:32;;;;;;;19.17;8.32;;;;;;;2.92;70.42;99722.25;4392567;32;33736;-79
2023/03/05 06:35:00;;;;;;;19.55;7.82;;;;;;;3.32;69.10;99730.28;4411217;32;34241;-79
2023/03/05 06:37:27;;;;;;;18.70;8.80;;;;;;;3.78;67.38;99727.50;4381908;32;32884;-82
2023/03/05 06:39:55;;;;;;;17.73;9.27;;;;;;;3.34;67.98;99721.03;4408834;32;33643;-81
2023/03/05 06:42:22;;;;;;;17.30;8.05;;;;;;;3.60;67.22;99719.44;4395344;32;34537;-81
2023/03/05 06:44:50;;;;;;;17.60;8.40;;;;;;;3.29;68.71;99722.38;4388475;32;34221;-79
2023/03/05 06:47:17;;;;;;;19.17;9.63;;;;;;;3.46;68.35;99715.00;4389596;32;33054;-80
2023/03/05 06:49:45;;;;;;;16.15;8.20;;;;;;;3.26;68.53;99718.69;4392013;32;33962;-82
2023/03/05 06:52:13;;;;;;;21.27;8.50;;;;;;;3.20;69.02;99720.81;4402884;32;34459;-80
2023/03/05 06:54:40;;;;;;;16.70;7.55;;;;;;;3.58;67.93;99726.13;4399781;32;33747;-78
2023/03/05 06:57:09;;;;;;;19.17;9.27;;;;;;;3.57;67.86;99716.63;4395347;32;33181;-80
2023/03/05 06:59:36;;;;;;;16.50;8.05;;;;;;;3.89;67.20;99721.47;4397719;32;33825;-79
2023/03/05 07:02:04;;;;;;;17.00;9.05;;;;;;;3.82;66.75;99713.25;4451215;32;33703;-81
2023/03/05 07:04:32;;;;;;;16.45;8.73;;;;;;;3.97;66.74;99724.56;4457433;32;33503;-80
2023/03/05 07:06:59;;;;;;;18.50;9.10;;;;;;;3.84;66.90;99724.50;4434627;32;32954;-79
2023/03/05 07:09:27;;;;;;;18.70;8.75;;;;;;;3.82;67.00;99713.25;4390749;32;34327;-80
2023/03/05 07:11:55;;;;;;;18.30;9.10;;;;;;;4.04;66.40;99721.66;4411802;32;33741;-80
2023/03/05 07:14:23;;;;;;;21.42;11.02;;;;;;;4.10;66.60;99722.06;4376273;32;34438;-80
2023/03/05 07:16:50;;;;;;;20.70;10.77;;;;;;;4.21;66.46;99721.91;4400792;32;34065;-79
2023/03/05 07:19:18;;;;;;;21.83;10.00;;;;;;;4.11;66.78;99722.97;4382837;32;34125;-80
2023/03/05 07:21:46;;;;;;;19.77;8.80;;;;;;;4.21;65.79;99714.22;4398085;32;33998;-79
2023/03/05 07:24:14;;;;;;;19.77;9.40;;;;;;;5.20;63.55;99716.53;4389863;32;32290;-80
2023/03/05 07:26:41;;;;;;;24.27;11.48;;;;;;;4.59;65.55;99715.94;4387491;32;33904;-79
2023/03/05 07:29:09;;;;;;;21.15;10.00;;;;;;;5.01;63.79;99720.44;4379537;32;34160;-81
2023/03/05 07:31:37;;;;;;;20.12;10.48;;;;;;;4.40;65.26;99714.69;4398019;32;33796;-79
2023/03/05 07:34:05;;;;;;;21.48;10.02;;;;;;;3.92;67.13;99716.56;4409506;32;33477;-78
2023/03/05 07:36:33;;;;;;;22.00;10.25;;;;;;;4.02;66.73;99714.62;4393374;32;33280;-81
2023/03/05 07:39:03;;;;;;;22.02;10.80;;;;;;;3.77;67.70;99718.06;4404407;32;34465;-78
2023/03/05 07:41:32;;;;;;;21.87;10.38;;;;;;;4.10;66.90;99709.25;4389246;32;32996;-79
2023/03/05 07:43:59;;;;;;;21.30;10.13;;;;;;;4.17;66.69;99712.25;4403914;32;34301;-80
2023/03/05 07:46:29;;;;;;;21.15;10.57;;;;;;;5.09;63.74;99715.81;4445288;32;34141;-79
2023/03/05 07:48:56;;;;;;;21.50;10.32;;;;;;;4.82;64.74;99713.22;4402435;32;34644;-80
2023/03/05 07:51:25;;;;;;;20.00;9.43;;;;;;;4.26;66.15;99718.00;4405271;32;33619;-79
2023/03/05 07:53:55;;;;;;;21.73;10.10;;;;;;;3.90;67.83;99706.97;4408224;32;34397;-79
2023/03/05 07:56:23;;;;;;;24.02;9.70;;;;;;;4.85;65.40;99718.56;4401092;32;33488;-79
2023/03/05 07:58:51;;;;;;;19.33;9.63;;;;;;;4.02;66.92;99712.97;4394529;32;33597;-79
2023/03/05 08:01:19;;;;;;;19.23;9.90;;;;;;;4.71;65.33;99709.03;4392270;32;33367;-79
2023/03/05 08:03:47;;;;;;;16.98;8.90;;;;;;;4.78;64.59;99700.97;4394340;32;34119;-80
2023/03/05 08:06:14;;;;;;;17.58;8.60;;;;;;;5.21;64.23;99697.75;4400175;32;33911;-79
2023/03/05 08:08:42;;;;;;;17.85;9.20;;;;;;;5.71;61.94;99702.63;4391493;32;36173;-79
2023/03/05 08:11:12;;;;;;;17.80;9.15;;;;;;;5.52;62.10;99700.56;4387545;32;33501;-79
2023/03/05 08:13:41;;;;;;;18.33;9.32;;;;;;;4.58;65.11;99702.22;4437553;32;33329;-80
2023/03/05 08:16:11;;;;;;;20.27;10.13;;;;;;;5.58;62.71;99694.94;4403920;32;33081;-79
2023/03/05 08:18:40;;;;;;;20.33;10.35;;;;;;;5.83;62.00;99699.91;4389752;32;34158;-79
2023/03/05 08:21:18;;;;;;;22.27;10.07;;;;;;;4.47;65.46;99706.63;4394600;32;34470;-80
2023/03/05 08:23:46;;;;;;;23.25;10.07;;;;;;;4.48;67.29;99707.50;4393740;32;33618;-81
2023/03/05 08:26:16;;;;;;;19.48;9.40;;;;;;;4.52;65.79;99707.84;4397605;32;32442;-80
2023/03/05 08:28:44;;;;;;;20.30;9.85;;;;;;;5.56;62.96;99699.97;4393691;32;32952;-79
2023/03/05 08:31:12;;;;;;;17.83;9.63;;;;;;;5.01;63.68;99705.03;4411208;32;33927;-79
2023/03/05 08:33:40;;;;;;;18.08;7.90;;;;;;;4.81;65.47;99706.31;4422851;32;33767;-79
2023/03/05 08:36:08;;;;;;;19.77;9.48;;;;;;;4.86;65.61;99704.03;4440904;32;32966;-79
2023/03/05 08:38:36;;;;;;;17.83;9.32;;;;;;;5.13;64.27;99705.81;4396286;32;33956;-80
2023/03/05 08:41:04;;;;;;;18.37;8.88;;;;;;;5.28;64.35;99710.19;4383859;32;33718;-81
2023/03/05 08:43:32;;;;;;;18.08;9.18;;;;;;;5.63;63.01;99704.72;4373368;32;34582;-80
2023/03/05 08:46:00;;;;;;;17.85;9.10;;;;;;;5.23;63.89;99703.87;4401807;32;33168;-81
2023/03/05 08:48:30;;;;;;;22.02;9.68;;;;;;;4.70;66.10;99697.03;4410076;32;33940;-80
2023/03/05 08:51:07;;;;;;;31.33;17.45;;;;;;;5.07;65.01;99689.16;4381851;32;33051;-80
2023/03/05 08:53:35;;;;;;;26.40;14.32;;;;;;;6.02;61.52;99690.00;4367532;32;33560;-80
2023/03/05 08:56:03;;;;;;;19.45;9.55;;;;;;;6.12;60.73;99683.72;4376457;32;33595;-81
2023/03/05 08:58:30;;;;;;;18.85;9.50;;;;;;;5.48;63.14;99688.31;4361293;32;33682;-80
2023/03/05 09:00:58;;;;;;;19.10;10.05;;;;;;;5.22;64.08;99690.13;4409299;32;34780;-80
2023/03/05 09:03:26;;;;;;;19.35;9.05;;;;;;;5.59;63.43;99687.31;4378873;32;33634;-79
2023/03/05 09:05:58;;;;;;;20.45;9.93;;;;;;;5.38;64.41;99696.25;4440247;32;33944;-79
2023/03/05 09:08:25;;;;;;;20.50;9.32;;;;;;;5.17;64.66;99691.50;4370268;32;34677;-78
2023/03/05 09:10:53;;;;;;;17.23;8.35;;;;;;;4.88;65.47;99687.94;4440571;32;33916;-80
2023/03/05 09:13:21;;;;;;;15.95;7.95;;;;;;;4.79;66.05;99687.38;4403561;32;34206;-80
2023/03/05 09:16:00;;;;;;;18.20;9.00;;;;;;;5.84;62.79;99681.16;4440027;32;33541;-80
2023/03/05 09:18:28;;;;;;;18.90;9.85;;;;;;;5.37;63.94;99695.38;4371953;32;33685;-79
2023/03/05 09:20:55;;;;;;;16.65;8.60;;;;;;;6.05;62.87;99682.47;4390565;32;34748;-80
2023/03/05 09:23:23;;;;;;;15.95;7.05;;;;;;;6.15;62.41;99675.31;4383089;32;33925;-80
2023/03/05 09:25:51;;;;;;;17.25;7.07;;;;;;;5.96;62.99;99681.91;4393952;32;33336;-79
2023/03/05 09:28:18;;;;;;;19.30;8.27;;;;;;;5.69;64.70;99684.53;4410701;32;35287;-81
2023/03/05 09:30:46;;;;;;;18.73;7.68;;;;;;;5.60;65.05;99683.97;4397570;32;34246;-81
2023/03/05 09:33:15;;;;;;;13.45;6.80;;;;;;;5.79;63.26;99677.38;4383793;32;32336;-81
2023/03/05 09:35:43;;;;;;;19.10;9.85;;;;;;;5.61;63.51;99665.19;4394484;32;33478;-79
2023/03/05 09:38:10;;;;;;;17.35;8.55;;;;;;;5.46;65.06;99675.38;4404099;32;34489;-81
2023/03/05 09:41:25;;;;;;;16.33;9.05;;;;;;;5.98;64.13;99677.75;4459830;32;33931;-79
2023/03/05 09:44:03;;;;;;;18.27;9.48;;;;;;;6.05;63.87;99674.78;4382026;32;33529;-78
2023/03/05 09:47:06;;;;;;;20.77;9.45;;;;;;;5.91;63.67;99670.44;4393992;32;32988;-79
2023/03/05 09:50:05;;;;;;;21.80;9.25;;;;;;;6.24;62.13;99670.75;4439237;32;33447;-79
2023/03/05 09:53:04;;;;;;;20.85;10.02;;;;;;;5.64;63.96;99655.09;4384709;32;32446;-80
2023/03/05 09:55:39;;;;;;;20.17;9.30;;;;;;;6.11;63.29;99653.69;4427311;32;33780;-78
2023/03/05 09:58:34;;;;;;;20.27;8.95;;;;;;;6.35;61.91;99659.38;4425566;32;34310;-79
2023/03/05 10:01:23;;;;;;;;;;;;;;;7.09;59.90;99658.50;4434509;32;33599;-79
2023/03/05 10:04:12;;;;;;;17.30;8.35;;;;;;;5.82;62.05;99660.47;4421994;32;34304;-78
2023/03/05 10:06:54;;;;;;;21.10;9.55;;;;;;;6.42;61.83;99661.53;4431858;32;33796;-79
2023/03/05 10:09:41;;;;;;;19.15;10.25;;;;;;;5.81;60.56;99657.81;4436299;32;34011;-76
2023/03/05 10:12:26;;;;;;;17.58;9.38;;;;;;;5.49;61.92;99651.59;4405563;32;33990;-78
2023/03/05 10:14:54;;;;;;;17.60;9.45;;;;;;;5.44;62.33;99651.28;4415431;32;33802;-78
2023/03/05 10:17:41;;;;;;;17.02;8.77;;;;;;;5.45;62.36;99641.91;4388962;32;33760;-77
2023/03/05 10:20:36;;;;;;;21.02;9.00;;;;;;;6.41;59.96;99641.75;4449192;32;33277;-80
2023/03/05 10:23:06;;;;;;;14.82;8.00;;;;;;;6.19;59.67;99646.41;4407754;32;33811;-78
2023/03/05 10:25:40;;;;;;;16.60;8.85;;;;;;;6.25;59.23;99649.34;4404235;32;33772;-77
2023/03/05 10:28:21;;;;;;;17.12;8.48;;;;;;;6.08;59.05;99638.97;4418547;32;34339;-80
2023/03/05 10:31:02;;;;;;;15.20;7.93;;;;;;;6.34;58.31;99631.91;4393638;32;32638;-79
2023/03/05 10:33:32;;;;;;;14.55;8.38;;;;;;;6.02;59.34;99620.56;4380255;32;33541;-76
2023/03/05 10:36:21;;;;;;;13.45;7.05;;;;;;;6.00;58.68;99617.03;4440385;32;33410;-77
2023/03/05 10:39:16;;;;;;;21.05;8.38;;;;;;;6.13;59.14;99628.06;4395421;32;33399;-79
2023/03/05 10:41:53;;;;;;;13.20;6.53;;;;;;;6.41;58.92;99639.19;4433252;32;33093;-77
2023/03/05 10:44:50;;;;;;;13.65;7.12;;;;;;;7.08;55.32;99625.78;4396031;32;34404;-76
2023/03/05 10:47:29;;;;;;;13.32;6.60;;;;;;;7.12;55.33;99626.87;4421564;32;33796;-77
2023/03/05 10:49:57;;;;;;;12.07;6.00;;;;;;;6.59;55.55;99630.75;4447647;32;34221;-77
2023/03/05 10:52:39;;;;;;;13.57;6.32;;;;;;;6.58;56.08;99621.25;4402506;32;33414;-76
2023/03/05 10:55:21;;;;;;;14.23;6.78;;;;;;;6.48;56.96;99620.72;4411693;32;33829;-78
2023/03/05 10:57:49;;;;;;;9.90;4.53;;;;;;;6.69;55.44;99609.88;4453675;32;33859;-78
2023/03/05 11:00:23;;;;;;;11.60;5.68;;;;;;;6.36;55.56;99608.84;4403301;32;34042;-76
2023/03/05 11:02:56;;;;;;;12.40;6.22;;;;;;;6.21;55.81;99601.09;4452853;32;33912;-78
2023/03/05 11:05:38;;;;;;;15.43;6.87;;;;;;;6.17;56.25;99596.59;4435773;32;33942;-77
2023/03/05 11:08:28;;;;;;;17.20;7.15;;;;;;;6.07;57.36;99588.31;4428083;32;35212;-76
2023/03/05 11:11:03;;;;;;;13.55;6.37;;;;;;;6.17;57.43;99599.16;4452946;32;32547;-79
2023/03/05 11:13:32;;;;;;;13.20;5.75;;;;;;;6.40;56.08;99591.09;4451018;32;33437;-78
2023/03/05 11:16:02;;;;;;;13.20;6.53;;;;;;;6.60;55.82;99586.19;4453759;32;33867;-78
2023/03/05 11:18:33;;;;;;;14.35;7.47;;;;;;;6.70;55.19;99580.75;4429233;32;34300;-78
2023/03/05 11:21:18;;;;;;;15.15;7.55;;;;;;;6.18;56.67;99588.97;4373259;32;33042;-77
2023/03/05 11:24:09;;;;;;;13.90;6.65;;;;;;;6.35;56.74;99579.63;4366604;32;32179;-77
2023/03/05 11:26:36;;;;;;;16.37;7.93;;;;;;;6.73;55.99;99569.75;4373683;32;34767;-78
2023/03/05 11:29:17;;;;;;;15.60;6.78;;;;;;;6.85;55.16;99565.28;4382823;32;33684;-77
2023/03/05 11:31:45;;;;;;;10.98;6.25;;;;;;;6.71;55.54;99574.81;4453450;32;33827;-78
2023/03/05 11:34:16;;;;;;;49.10;11.48;;;;;;;6.92;53.44;99558.81;4442266;32;32921;-78
2023/03/05 11:36:49;;;;;;;23.25;10.65;;;;;;;6.91;53.53;99565.63;4409974;32;33986;-78
2023/03/05 11:39:21;;;;;;;29.52;13.07;;;;;;;6.96;53.81;99564.19;4390097;32;34781;-78
2023/03/05 11:42:04;;;;;;;23.90;10.43;;;;;;;7.13;53.36;99556.50;4403635;32;33929;-77
2023/03/05 11:44:34;;;;;;;11.82;6.25;;;;;;;6.89;53.61;99563.00;4397664;32;34210;-79
2023/03/05 11:47:13;;;;;;;19.60;10.48;;;;;;;6.67;55.09;99554.88;4408640;32;34600;-78
2023/03/05 11:49:44;;;;;;;25.98;12.10;;;;;;;7.21;52.44;99545.81;4399036;32;34688;-77
2023/03/05 11:52:12;;;;;;;20.10;7.95;;;;;;;7.17;53.60;99546.47;4395738;32;33709;-76